Time,TemperatureF,DewpointF,PressureIn,WindDirection,WindDirectionDegrees,WindSpeedMPH,WindSpeedGustMPH,Humidity,HourlyPrecipIn,Conditions,Clouds,dailyrainin,SoftwareType,DateUTC
2013-02-07 00:01:00,47.0,34.0,29.76,South,190,1.0,10.0,61,0.00,,,0.07,,2013-02-07 08:01:00,
2013-02-07 00:11:00,47.0,34.0,29.76,South,190,1.0,10.0,61,0.00,,,0.07,,2013-02-07 08:11:00,
2013-02-07 00:21:00,47.0,35.0,29.76,SSE,161,3.0,10.0,62,0.00,,,0.07,,2013-02-07 08:21:00,
2013-02-07 00:31:00,47.0,35.0,29.76,SE,140,0.0,6.0,64,0.00,,,0.07,,2013-02-07 08:31:00,
2013-02-07 00:41:00,47.0,35.0,29.76,SE,140,0.0,6.0,64,0.00,,,0.07,,2013-02-07 08:41:00,
2013-02-07 00:52:00,47.0,36.0,29.76,SSW,193,0.0,12.0,66,0.00,,,0.06,,2013-02-07 08:52:00,
2013-02-07 01:01:00,47.0,37.0,29.76,South,185,1.0,10.0,67,0.00,,,0.06,,2013-02-07 09:01:00,
2013-02-07 01:11:00,47.0,37.0,29.76,South,185,1.0,10.0,67,0.00,,,0.06,,2013-02-07 09:11:00,
2013-02-07 01:21:00,46.0,37.0,29.78,NW,305,8.0,17.0,72,0.01,,,0.07,,2013-02-07 09:21:00,
2013-02-07 01:31:00,45.0,38.0,29.81,SW,234,4.0,13.0,77,0.04,,,0.10,,2013-02-07 09:31:00,
2013-02-07 01:41:00,45.0,38.0,29.81,SW,234,4.0,13.0,77,0.04,,,0.10,,2013-02-07 09:41:00,
2013-02-07 01:52:00,42.0,37.0,29.82,SSE,156,1.0,9.0,82,0.08,,,0.14,,2013-02-07 09:52:00,
2013-02-07 02:01:00,41.0,37.0,29.83,South,174,1.0,10.0,84,0.08,,,0.14,,2013-02-07 10:01:00,
2013-02-07 02:11:00,41.0,37.0,29.83,South,174,1.0,10.0,84,0.08,,,0.14,,2013-02-07 10:11:00,
2013-02-07 02:21:00,40.0,36.0,29.84,South,182,3.0,6.0,87,0.07,,,0.14,,2013-02-07 10:21:00,
2013-02-07 02:31:00,40.0,37.0,29.84,SSE,161,0.0,6.0,88,0.04,,,0.14,,2013-02-07 10:31:00,
2013-02-07 02:41:00,40.0,37.0,29.84,SSE,161,0.0,6.0,88,0.04,,,0.14,,2013-02-07 10:41:00,
2013-02-07 02:52:00,40.0,37.0,29.84,South,170,0.0,5.0,89,0.00,,,0.14,,2013-02-07 10:52:00,
2013-02-07 03:01:00,40.0,37.0,29.85,SW,217,2.0,5.0,88,0.00,,,0.14,,2013-02-07 11:01:00,
2013-02-07 03:11:00,40.0,37.0,29.85,SW,217,2.0,5.0,88,0.00,,,0.14,,2013-02-07 11:11:00,
2013-02-07 03:22:00,39.0,36.0,29.86,SSE,153,1.0,5.0,89,0.00,,,0.14,,2013-02-07 11:22:00,
2013-02-07 03:32:00,39.0,36.0,29.87,South,178,1.0,3.0,89,0.00,,,0.14,,2013-02-07 11:32:00,
2013-02-07 03:43:00,39.0,36.0,29.87,South,178,1.0,3.0,89,0.00,,,0.14,,2013-02-07 11:43:00,
2013-02-07 03:52:00,39.0,36.0,29.87,South,169,0.0,1.0,89,0.00,,,0.13,,2013-02-07 11:52:00,
2013-02-07 04:01:00,39.0,36.0,29.87,SSE,167,0.0,2.0,88,0.00,,,0.13,,2013-02-07 12:01:00,
2013-02-07 04:11:00,39.0,36.0,29.87,SSE,167,0.0,2.0,88,0.00,,,0.13,,2013-02-07 12:11:00,
2013-02-07 04:21:00,38.0,35.0,29.88,South,178,0.0,7.0,89,0.00,,,0.13,,2013-02-07 12:21:00,
2013-02-07 04:32:00,38.0,35.0,29.88,SSE,154,0.0,3.0,89,0.00,,,0.13,,2013-02-07 12:32:00,
2013-02-07 04:41:00,38.0,35.0,29.88,SSE,154,0.0,3.0,89,0.00,,,0.13,,2013-02-07 12:41:00,
2013-02-07 04:53:00,38.0,35.0,29.89,South,190,1.0,6.0,90,0.00,,,0.12,,2013-02-07 12:53:00,
2013-02-07 05:02:00,38.0,35.0,29.90,South,190,0.0,1.0,90,0.00,,,0.12,,2013-02-07 13:02:00,
2013-02-07 05:11:00,38.0,35.0,29.90,South,190,0.0,1.0,90,0.00,,,0.12,,2013-02-07 13:11:00,
2013-02-07 05:21:00,38.0,35.0,29.90,South,190,0.0,1.0,89,0.00,,,0.12,,2013-02-07 13:21:00,
2013-02-07 05:31:00,37.0,34.0,29.91,South,190,0.0,1.0,89,0.00,,,0.12,,2013-02-07 13:31:00,
2013-02-07 05:41:00,37.0,34.0,29.91,South,190,0.0,1.0,89,0.00,,,0.12,,2013-02-07 13:41:00,
2013-02-07 05:52:00,37.0,34.0,29.91,SSW,204,0.0,4.0,89,0.00,,,0.12,,2013-02-07 13:52:00,
2013-02-07 06:01:00,37.0,34.0,29.91,SSW,213,0.0,3.0,89,0.00,,,0.12,,2013-02-07 14:01:00,
2013-02-07 06:11:00,37.0,34.0,29.91,SSW,213,0.0,3.0,89,0.00,,,0.12,,2013-02-07 14:11:00,
2013-02-07 06:21:00,37.0,34.0,29.91,South,185,0.0,1.0,90,0.00,,,0.12,,2013-02-07 14:21:00,
2013-02-07 06:31:00,37.0,34.0,29.92,South,185,0.0,1.0,89,0.00,,,0.12,,2013-02-07 14:31:00,
2013-02-07 06:41:00,37.0,34.0,29.92,South,185,0.0,1.0,89,0.00,,,0.12,,2013-02-07 14:41:00,
2013-02-07 06:52:00,36.0,33.0,29.92,South,185,0.0,1.0,90,0.00,,,0.09,,2013-02-07 14:52:00,
2013-02-07 07:01:00,36.0,33.0,29.92,South,185,0.0,2.0,90,0.00,,,0.09,,2013-02-07 15:01:00,
2013-02-07 07:11:00,36.0,33.0,29.92,South,185,0.0,2.0,90,0.00,,,0.09,,2013-02-07 15:11:00,
2013-02-07 07:21:00,36.0,33.0,29.93,SW,216,0.0,0.0,90,0.00,,,0.09,,2013-02-07 15:21:00,
2013-02-07 07:31:00,36.0,33.0,29.93,SW,216,0.0,0.0,90,0.00,,,0.09,,2013-02-07 15:31:00,
2013-02-07 07:41:00,36.0,33.0,29.93,SW,216,0.0,0.0,90,0.00,,,0.09,,2013-02-07 15:41:00,
2013-02-07 07:52:00,36.0,33.0,29.93,SW,216,0.0,0.0,90,0.00,,,0.08,,2013-02-07 15:52:00,
2013-02-07 08:01:00,36.0,33.0,29.93,SW,216,0.0,0.0,90,0.00,,,0.08,,2013-02-07 16:01:00,
2013-02-07 08:11:00,36.0,33.0,29.93,SW,216,0.0,0.0,90,0.00,,,0.08,,2013-02-07 16:11:00,
2013-02-07 08:21:00,36.0,33.0,29.94,SW,216,0.0,0.0,90,0.00,,,0.08,,2013-02-07 16:21:00,
2013-02-07 08:31:00,36.0,33.0,29.95,SW,216,0.0,0.0,90,0.00,,,0.08,,2013-02-07 16:31:00,
2013-02-07 08:41:00,36.0,33.0,29.95,SW,216,0.0,0.0,90,0.00,,,0.08,,2013-02-07 16:41:00,
2013-02-07 08:52:00,36.0,33.0,29.95,SW,216,0.0,0.0,90,0.00,,,0.08,,2013-02-07 16:52:00,
2013-02-07 09:01:00,36.0,33.0,29.96,SW,216,0.0,0.0,90,0.00,,,0.08,,2013-02-07 17:01:00,
2013-02-07 09:11:00,36.0,33.0,29.96,SW,216,0.0,0.0,90,0.00,,,0.08,,2013-02-07 17:11:00,
2013-02-07 09:21:00,36.0,34.0,29.96,SW,216,0.0,0.0,91,0.00,,,0.08,,2013-02-07 17:21:00,
2013-02-07 09:31:00,36.0,34.0,29.97,SW,216,0.0,0.0,91,0.00,,,0.08,,2013-02-07 17:31:00,
2013-02-07 09:41:00,36.0,34.0,29.97,SW,216,0.0,0.0,91,0.00,,,0.08,,2013-02-07 17:41:00,
2013-02-07 09:52:00,36.0,34.0,29.97,SSE,150,0.0,2.0,92,0.00,,,0.08,,2013-02-07 17:52:00,
2013-02-07 10:01:00,37.0,35.0,29.97,SSW,204,1.0,2.0,93,0.00,,,0.08,,2013-02-07 18:01:00,
2013-02-07 10:11:00,37.0,35.0,29.97,SSW,204,1.0,2.0,93,0.00,,,0.08,,2013-02-07 18:11:00,
2013-02-07 10:22:00,39.0,36.0,29.97,SE,142,1.0,5.0,90,0.00,,,0.08,,2013-02-07 18:22:00,
2013-02-07 10:31:00,41.0,36.0,29.98,South,185,2.0,4.0,81,0.00,,,0.08,,2013-02-07 18:31:00,
2013-02-07 10:41:00,41.0,36.0,29.98,South,185,2.0,4.0,81,0.00,,,0.08,,2013-02-07 18:41:00,
2013-02-07 10:52:00,43.0,35.0,29.98,ESE,114,0.0,3.0,72,0.00,,,0.08,,2013-02-07 18:52:00,
2013-02-07 11:01:00,44.0,34.0,29.98,SSW,194,0.0,9.0,67,0.00,,,0.08,,2013-02-07 19:01:00,
2013-02-07 11:11:00,44.0,34.0,29.98,SSW,194,0.0,9.0,67,0.00,,,0.08,,2013-02-07 19:11:00,
2013-02-07 11:21:00,44.0,32.0,29.98,South,179,2.0,7.0,62,0.00,,,0.08,,2013-02-07 19:21:00,
2013-02-07 11:31:00,45.0,33.0,29.99,SSE,167,0.0,5.0,63,0.00,,,0.08,,2013-02-07 19:31:00,
2013-02-07 11:41:00,45.0,33.0,29.99,SSE,167,0.0,5.0,63,0.00,,,0.08,,2013-02-07 19:41:00,
2013-02-07 11:52:00,45.0,31.0,29.98,WSW,252,0.0,3.0,58,0.00,,,0.08,,2013-02-07 19:52:00,
2013-02-07 12:01:00,45.0,33.0,29.98,West,262,0.0,5.0,63,0.00,,,0.08,,2013-02-07 20:01:00,
2013-02-07 12:11:00,45.0,33.0,29.98,West,262,0.0,5.0,63,0.00,,,0.08,,2013-02-07 20:11:00,
2013-02-07 12:21:00,45.0,32.0,29.98,West,262,0.0,1.0,61,0.00,,,0.08,,2013-02-07 20:21:00,
2013-02-07 12:31:00,46.0,34.0,29.98,West,275,3.0,5.0,62,0.00,,,0.08,,2013-02-07 20:31:00,
2013-02-07 12:41:00,46.0,34.0,29.98,West,275,3.0,5.0,62,0.00,,,0.08,,2013-02-07 20:41:00,
2013-02-07 12:52:00,45.0,31.0,29.98,SE,133,1.0,3.0,58,0.00,,,0.08,,2013-02-07 20:52:00,
2013-02-07 13:01:00,46.0,32.0,29.98,SW,233,3.0,6.0,58,0.00,,,0.08,,2013-02-07 21:01:00,
2013-02-07 13:11:00,46.0,32.0,29.98,SW,233,3.0,6.0,58,0.00,,,0.08,,2013-02-07 21:11:00,
2013-02-07 13:21:00,47.0,32.0,29.97,WSW,243,2.0,6.0,55,0.00,,,0.08,,2013-02-07 21:21:00,
2013-02-07 13:31:00,46.0,34.0,29.97,West,273,0.0,4.0,62,0.00,,,0.08,,2013-02-07 21:31:00,
2013-02-07 13:41:00,46.0,34.0,29.97,West,273,0.0,4.0,62,0.00,,,0.08,,2013-02-07 21:41:00,
2013-02-07 13:52:00,48.0,35.0,29.97,NNW,333,0.0,5.0,60,0.00,,,0.08,,2013-02-07 21:52:00,
2013-02-07 14:01:00,46.0,34.0,29.97,SW,217,1.0,4.0,63,0.00,,,0.08,,2013-02-07 22:01:00,
2013-02-07 14:11:00,46.0,34.0,29.97,SW,217,1.0,4.0,63,0.00,,,0.08,,2013-02-07 22:11:00,
2013-02-07 14:21:00,45.0,34.0,29.97,West,264,0.0,2.0,66,0.00,,,0.08,,2013-02-07 22:21:00,
2013-02-07 14:31:00,45.0,34.0,29.97,West,264,0.0,3.0,65,0.00,,,0.08,,2013-02-07 22:31:00,
2013-02-07 14:42:00,45.0,34.0,29.97,West,264,0.0,3.0,65,0.00,,,0.08,,2013-02-07 22:42:00,
2013-02-07 14:52:00,45.0,33.0,29.97,West,261,1.0,5.0,62,0.00,,,0.08,,2013-02-07 22:52:00,
2013-02-07 15:01:00,48.0,34.0,29.98,WNW,286,0.0,2.0,58,0.00,,,0.08,,2013-02-07 23:01:00,
2013-02-07 15:11:00,48.0,34.0,29.98,WNW,286,0.0,2.0,58,0.00,,,0.08,,2013-02-07 23:11:00,
2013-02-07 15:21:00,48.0,33.0,29.98,WNW,287,0.0,4.0,55,0.00,,,0.08,,2013-02-07 23:21:00,
2013-02-07 15:31:00,49.0,33.0,29.98,North,360,0.0,4.0,53,0.00,,,0.08,,2013-02-07 23:31:00,
2013-02-07 15:41:00,49.0,33.0,29.98,North,360,0.0,4.0,53,0.00,,,0.08,,2013-02-07 23:41:00,
2013-02-07 15:52:00,48.0,32.0,29.98,West,267,1.0,2.0,54,0.00,,,0.08,,2013-02-07 23:52:00,
2013-02-07 16:01:00,47.0,31.0,29.98,WSW,240,1.0,3.0,53,0.00,,,0.08,,2013-02-08 00:01:00,
2013-02-07 16:11:00,47.0,31.0,29.98,WSW,240,1.0,3.0,53,0.00,,,0.08,,2013-02-08 00:11:00,
2013-02-07 16:21:00,46.0,30.0,29.98,SW,221,1.0,3.0,54,0.00,,,0.08,,2013-02-08 00:21:00,
2013-02-07 16:31:00,45.0,29.0,29.99,SW,230,0.0,2.0,54,0.00,,,0.08,,2013-02-08 00:31:00,
2013-02-07 16:41:00,45.0,29.0,29.99,SW,230,0.0,2.0,54,0.00,,,0.08,,2013-02-08 00:41:00,
2013-02-07 16:52:00,44.0,31.0,29.99,SW,230,0.0,1.0,59,0.00,,,0.08,,2013-02-08 00:52:00,
2013-02-07 17:01:00,43.0,32.0,30.00,SW,230,0.0,0.0,66,0.00,,,0.08,,2013-02-08 01:01:00,
2013-02-07 17:11:00,43.0,32.0,30.00,SW,230,0.0,0.0,66,0.00,,,0.08,,2013-02-08 01:11:00,
2013-02-07 17:21:00,41.0,32.0,30.00,SW,230,0.0,1.0,71,0.00,,,0.08,,2013-02-08 01:21:00,
2013-02-07 17:31:00,40.0,32.0,30.01,SW,230,0.0,0.0,73,0.00,,,0.08,,2013-02-08 01:31:00,
2013-02-07 17:41:00,40.0,32.0,30.01,SW,230,0.0,0.0,73,0.00,,,0.08,,2013-02-08 01:41:00,
2013-02-07 17:51:00,38.0,32.0,30.01,SW,230,0.0,0.0,78,0.00,,,0.08,,2013-02-08 01:51:00,
2013-02-07 18:01:00,37.0,32.0,30.02,SW,230,0.0,0.0,81,0.00,,,0.08,,2013-02-08 02:01:00,
2013-02-07 18:11:00,37.0,32.0,30.02,SW,230,0.0,0.0,81,0.00,,,0.08,,2013-02-08 02:11:00,
2013-02-07 18:21:00,36.0,31.0,30.03,SW,230,0.0,0.0,82,0.00,,,0.08,,2013-02-08 02:21:00,
2013-02-07 18:31:00,35.0,30.0,30.03,SW,230,0.0,0.0,83,0.00,,,0.08,,2013-02-08 02:31:00,
2013-02-07 18:42:00,35.0,30.0,30.03,SW,230,0.0,0.0,83,0.00,,,0.08,,2013-02-08 02:42:00,
2013-02-07 18:52:00,34.0,30.0,30.03,SW,230,0.0,0.0,85,0.00,,,0.08,,2013-02-08 02:52:00,
2013-02-07 19:01:00,33.0,29.0,30.03,SW,230,0.0,0.0,86,0.00,,,0.08,,2013-02-08 03:01:00,
2013-02-07 19:11:00,33.0,29.0,30.03,SW,230,0.0,0.0,86,0.00,,,0.08,,2013-02-08 03:11:00,
2013-02-07 19:22:00,33.0,29.0,30.03,SW,230,0.0,0.0,86,0.00,,,0.08,,2013-02-08 03:22:00,
2013-02-07 19:31:00,33.0,29.0,30.04,SW,230,0.0,0.0,86,0.00,,,0.08,,2013-02-08 03:31:00,
2013-02-07 19:41:00,33.0,29.0,30.04,SW,230,0.0,0.0,86,0.00,,,0.08,,2013-02-08 03:41:00,
2013-02-07 19:52:00,33.0,29.0,30.05,SW,230,0.0,0.0,86,0.00,,,0.08,,2013-02-08 03:52:00,
2013-02-07 20:01:00,32.0,28.0,30.05,SW,230,0.0,0.0,85,0.00,,,0.08,,2013-02-08 04:01:00,
2013-02-07 20:11:00,32.0,28.0,30.05,SW,230,0.0,0.0,85,0.00,,,0.08,,2013-02-08 04:11:00,
2013-02-07 20:21:00,32.0,28.0,30.06,SW,230,0.0,0.0,85,0.00,,,0.08,,2013-02-08 04:21:00,
2013-02-07 20:31:00,32.0,28.0,30.06,SW,230,0.0,0.0,86,0.00,,,0.08,,2013-02-08 04:31:00,
2013-02-07 20:41:00,32.0,28.0,30.06,SW,230,0.0,0.0,86,0.00,,,0.08,,2013-02-08 04:41:00,
2013-02-07 20:52:00,31.0,27.0,30.06,SW,230,0.0,0.0,86,0.00,,,0.08,,2013-02-08 04:52:00,
2013-02-07 21:01:00,31.0,27.0,30.07,SW,230,0.0,0.0,86,0.00,,,0.08,,2013-02-08 05:01:00,
2013-02-07 21:11:00,31.0,27.0,30.07,SW,230,0.0,0.0,86,0.00,,,0.08,,2013-02-08 05:11:00,
2013-02-07 21:22:00,30.0,26.0,30.08,SW,230,0.0,0.0,86,0.00,,,0.08,,2013-02-08 05:22:00,
2013-02-07 21:31:00,30.0,26.0,30.09,SW,230,0.0,0.0,86,0.00,,,0.08,,2013-02-08 05:31:00,
2013-02-07 21:41:00,30.0,26.0,30.09,SW,230,0.0,0.0,86,0.00,,,0.08,,2013-02-08 05:41:00,
2013-02-07 21:52:00,30.0,26.0,30.09,SW,230,0.0,0.0,86,0.00,,,0.08,,2013-02-08 05:52:00,
2013-02-07 22:01:00,30.0,26.0,30.09,SW,230,0.0,0.0,86,0.00,,,0.08,,2013-02-08 06:01:00,
2013-02-07 22:11:00,30.0,26.0,30.09,SW,230,0.0,0.0,86,0.00,,,0.08,,2013-02-08 06:11:00,
2013-02-07 22:21:00,30.0,26.0,30.09,SW,230,0.0,0.0,86,0.00,,,0.08,,2013-02-08 06:21:00,
2013-02-07 22:31:00,29.0,25.0,30.10,SW,230,0.0,0.0,86,0.00,,,0.08,,2013-02-08 06:31:00,
2013-02-07 22:41:00,29.0,25.0,30.10,SW,230,0.0,0.0,86,0.00,,,0.08,,2013-02-08 06:41:00,
2013-02-07 22:52:00,29.0,26.0,30.11,SW,230,0.0,0.0,87,0.00,,,0.08,,2013-02-08 06:52:00,
2013-02-07 23:01:00,29.0,26.0,30.11,SW,230,0.0,0.0,87,0.00,,,0.08,,2013-02-08 07:01:00,
2013-02-07 23:11:00,29.0,26.0,30.12,SW,230,0.0,0.0,88,0.00,,,0.08,,2013-02-08 07:11:00,
2013-02-07 23:21:00,29.0,26.0,30.12,SW,230,0.0,0.0,88,0.00,,,0.08,,2013-02-08 07:21:00,
2013-02-07 23:31:00,29.0,26.0,30.12,SW,230,0.0,0.0,88,0.00,,,0.08,,2013-02-08 07:31:00,
2013-02-07 23:41:00,29.0,26.0,30.13,SW,230,0.0,0.0,88,0.00,,,0.08,,2013-02-08 07:41:00,
2013-02-07 23:52:00,29.0,26.0,30.13,SW,230,0.0,0.0,88,0.00,,,0.08,,2013-02-08 07:52:00,